^^
Your Local Weather - Clay, NY Station Historical Data
Daily Summary for January 14, 2017 Units:  Metric    English   Both
« Previous Day
Next Day »
Daily Weekly Monthly Yearly Custom
  High: Low: Average:
Temperature: -3.6 °C -9.9 °C -6.6 °C
Dew Point: -7.6 °C -13.4 °C -10.6 °C
Humidity: 88% 64% 74%
Wind Speed: 4.8km/h 0km/h 1.1km/h
Wind Gust: 8km/h - -
Wind- - East
Pressure: 1039.8 hPa 1026.3 hPa -
Precipitation: 0 mm    
Historical Graphs
 
 
Tabular Data for January 14, 2017
Time Temperature Dew Point Pressure Wind Wind Speed Wind Gust Humidity Rainfall Rate (Hourly) solar
00:04 -6.4 °C -11.9 °C 1039.8 hPa Calm     65% 0 mm 0 W/m2
00:10 -6.5 °C -12 °C 1039.8 hPa Calm     65% 0 mm 0 W/m2
00:16 -6.6 °C -12.1 °C 1039.8 hPa Calm     65% 0 mm 0 W/m2
00:22 -6.6 °C -11.9 °C 1039.8 hPa Calm   4.8 km/h 66% 0 mm 0 W/m2
00:28 -6.5 °C -12 °C 1039.8 hPa North 3.2 km/h 4.8 km/h 65% 0 mm 0 W/m2
00:34 -6.6 °C -12.2 °C 1039.8 hPa North 1.6 km/h 3.2 km/h 64% 0 mm 0 W/m2
00:40 -6.7 °C -12.2 °C 1039.8 hPa North 1.6 km/h 1.6 km/h 65% 0 mm 0 W/m2
00:46 -6.9 °C -12.6 °C 1039.8 hPa Calm   1.6 km/h 64% 0 mm 0 W/m2
00:52 -7 °C -12.5 °C 1039.8 hPa Calm     65% 0 mm 0 W/m2
00:58 -7.2 °C -12.4 °C 1039.8 hPa Calm     66% 0 mm 0 W/m2
01:04 -7.3 °C -12.4 °C 1039.5 hPa Calm     67% 0 mm 0 W/m2
01:10 -7.4 °C -12.7 °C 1039.5 hPa Calm     66% 0 mm 0 W/m2
01:16 -7.4 °C -12.7 °C 1039.5 hPa Calm     66% 0 mm 0 W/m2
01:22 -7.5 °C -12.8 °C 1039.5 hPa NE 1.6 km/h 1.6 km/h 66% 0 mm 0 W/m2
01:28 -7.6 °C -13 °C 1039.8 hPa NE 1.6 km/h 3.2 km/h 65% 0 mm 0 W/m2
01:34 -7.6 °C -12.9 °C 1039.8 hPa NE 1.6 km/h 1.6 km/h 66% 0 mm 0 W/m2
01:40 -7.7 °C -13.2 °C 1039.8 hPa NNE 1.6 km/h 3.2 km/h 65% 0 mm 0 W/m2
01:46 -7.8 °C -13.1 °C 1039.8 hPa NNE 1.6 km/h 4.8 km/h 66% 0 mm 0 W/m2
01:52 -7.9 °C -12.9 °C 1039.8 hPa NNE 1.6 km/h 1.6 km/h 67% 0 mm 0 W/m2
01:58 -8 °C -12.9 °C 1039.5 hPa NNE 1.6 km/h 1.6 km/h 68% 0 mm 0 W/m2
02:04 -8.1 °C -13 °C 1039.8 hPa Calm   1.6 km/h 68% 0 mm 0 W/m2
02:10 -8.2 °C -12.8 °C 1039.8 hPa Calm     69% 0 mm 0 W/m2
02:16 -8.3 °C -12.8 °C 1039.8 hPa ENE 1.6 km/h 3.2 km/h 70% 0 mm 0 W/m2
02:22 -8.3 °C -12.6 °C 1039.5 hPa ENE 1.6 km/h 1.6 km/h 71% 0 mm 0 W/m2
02:28 -8.4 °C -12.9 °C 1039.5 hPa ENE 1.6 km/h 1.6 km/h 70% 0 mm 0 W/m2
02:34 -8.4 °C -12.8 °C 1039.5 hPa ENE 1.6 km/h 1.6 km/h 71% 0 mm 0 W/m2
02:40 -8.5 °C -13 °C 1039.5 hPa ENE 1.6 km/h 4.8 km/h 70% 0 mm 0 W/m2
02:46 -8.5 °C -13 °C 1039.5 hPa East 1.6 km/h 4.8 km/h 70% 0 mm 0 W/m2
02:52 -8.5 °C -13 °C 1039.5 hPa NE 1.6 km/h 4.8 km/h 70% 0 mm 0 W/m2
02:58 -8.6 °C -13.1 °C 1039.5 hPa SE 1.6 km/h 4.8 km/h 70% 0 mm 0 W/m2
03:04 -8.7 °C -13.1 °C 1039.5 hPa SE 1.6 km/h 3.2 km/h 71% 0 mm 0 W/m2
03:10 -8.8 °C -13.1 °C 1039.5 hPa Calm     71% 0 mm 0 W/m2
03:16 -8.8 °C -13.2 °C 1039.5 hPa ENE 1.6 km/h 3.2 km/h 71% 0 mm 0 W/m2
03:22 -8.9 °C -13.2 °C 1039.5 hPa East 1.6 km/h 1.6 km/h 71% 0 mm 0 W/m2
03:28 -8.9 °C -13.4 °C 1039.2 hPa East 1.6 km/h 4.8 km/h 70% 0 mm 0 W/m2
03:34 -9 °C -13.3 °C 1039.2 hPa SE 3.2 km/h 4.8 km/h 71% 0 mm 0 W/m2
03:40 -9.1 °C -13.3 °C 1039.2 hPa ENE 1.6 km/h 1.6 km/h 71% 0 mm 0 W/m2
03:46 -9.1 °C -13.2 °C 1039.2 hPa East 1.6 km/h 4.8 km/h 72% 0 mm 0 W/m2
03:52 -9.2 °C -13.3 °C 1039.2 hPa East 1.6 km/h 1.6 km/h 72% 0 mm 0 W/m2
03:58 -9.3 °C -13.2 °C 1038.8 hPa East 1.6 km/h 1.6 km/h 73% 0 mm 0 W/m2
04:04 -9.3 °C -13.3 °C 1039.2 hPa ENE 1.6 km/h 4.8 km/h 73% 0 mm 0 W/m2
04:10 -9.3 °C -13.1 °C 1038.8 hPa ENE 1.6 km/h 3.2 km/h 74% 0 mm 0 W/m2
04:14 -9.4 °C -13.2 °C 1038.8 hPa ENE 1.6 km/h 3.2 km/h 74% 0 mm 0 W/m2
04:20 -9.4 °C -13.2 °C 1038.8 hPa ENE 1.6 km/h 1.6 km/h 74% 0 mm 0 W/m2
04:26 -9.5 °C -13.1 °C 1038.8 hPa Calm   3.2 km/h 75% 0 mm 0 W/m2
04:32 -9.6 °C -13.2 °C 1038.8 hPa ENE 1.6 km/h 4.8 km/h 75% 0 mm 0 W/m2
04:38 -9.6 °C -13.2 °C 1038.8 hPa ENE 1.6 km/h 4.8 km/h 75% 0 mm 0 W/m2
04:44 -9.6 °C -13.2 °C 1038.8 hPa ENE 1.6 km/h 3.2 km/h 75% 0 mm 0 W/m2
04:50 -9.6 °C -13.4 °C 1038.8 hPa ENE 1.6 km/h 1.6 km/h 74% 0 mm 0 W/m2
04:56 -9.7 °C -13.3 °C 1038.8 hPa ENE 1.6 km/h 1.6 km/h 75% 0 mm 0 W/m2
05:02 -9.8 °C -13.4 °C 1038.5 hPa Calm     75% 0 mm 0 W/m2
05:08 -9.9 °C -13.3 °C 1038.5 hPa Calm   1.6 km/h 76% 0 mm 0 W/m2
05:14 -9.9 °C -13.3 °C 1038.5 hPa Calm   1.6 km/h 76% 0 mm 0 W/m2
05:20 -9.8 °C -13.3 °C 1038.5 hPa Calm   4.8 km/h 76% 0 mm 0 W/m2
05:26 -9.8 °C -13.4 °C 1038.5 hPa ENE 1.6 km/h 4.8 km/h 75% 0 mm 0 W/m2
05:32 -9.8 °C -13.4 °C 1038.5 hPa East 1.6 km/h 1.6 km/h 75% 0 mm 0 W/m2
05:38 -9.8 °C -13.4 °C 1038.5 hPa East 1.6 km/h 3.2 km/h 75% 0 mm 0 W/m2
05:44 -9.8 °C -13.4 °C 1038.5 hPa East 1.6 km/h 1.6 km/h 75% 0 mm 0 W/m2
05:50 -9.8 °C -13.4 °C 1038.5 hPa Calm     75% 0 mm 0 W/m2
05:56 -9.8 °C -13.4 °C 1038.5 hPa East 1.6 km/h 1.6 km/h 75% 0 mm 0 W/m2
06:02 -9.8 °C -13.2 °C 1038.5 hPa East 1.6 km/h 1.6 km/h 76% 0 mm 0 W/m2
06:08 -9.7 °C -13.2 °C 1038.1 hPa ENE 1.6 km/h 1.6 km/h 76% 0 mm 0 W/m2
06:14 -9.7 °C -13.3 °C 1038.1 hPa ENE 1.6 km/h 4.8 km/h 75% 0 mm 0 W/m2
06:20 -9.7 °C -13.2 °C 1038.1 hPa East 1.6 km/h 1.6 km/h 76% 0 mm 0 W/m2
06:26 -9.8 °C -13.2 °C 1038.1 hPa East 1.6 km/h 3.2 km/h 76% 0 mm 0 W/m2
06:32 -9.8 °C -13.3 °C 1038.1 hPa East 1.6 km/h 3.2 km/h 76% 0 mm 0 W/m2
06:38 -9.9 °C -13.3 °C 1038.1 hPa East 1.6 km/h 3.2 km/h 76% 0 mm 0 W/m2
06:44 -9.9 °C -13.3 °C 1038.1 hPa East 1.6 km/h 1.6 km/h 76% 0 mm 0 W/m2
06:50 -9.9 °C -13.2 °C 1038.1 hPa Calm     77% 0 mm 0 W/m2
06:56 -9.8 °C -13.1 °C 1038.1 hPa Calm     77% 0 mm 0 W/m2
07:02 -9.9 °C -13.2 °C 1038.1 hPa Calm     77% 0 mm 0 W/m2
07:08 -9.8 °C -13.1 °C 1037.8 hPa Calm     77% 0 mm 0 W/m2
07:14 -9.9 °C -13 °C 1038.1 hPa Calm     78% 0 mm 0 W/m2
07:20 -9.8 °C -12.9 °C 1038.1 hPa Calm     78% 0 mm 0 W/m2
07:26 -9.7 °C -13 °C 1038.1 hPa Calm     77% 0 mm 0 W/m2
07:32 -9.6 °C -12.8 °C 1037.8 hPa Calm     77% 0 mm 0 W/m2
07:38 -9.4 °C -12.6 °C 1037.8 hPa Calm   3.2 km/h 78% 0 mm 0 W/m2
07:44 -9.4 °C -12.7 °C 1037.5 hPa ESE 1.6 km/h 3.2 km/h 77% 0 mm 7 W/m2
07:50 -9.4 °C -12.7 °C 1037.5 hPa ENE 1.6 km/h 1.6 km/h 77% 0 mm 11 W/m2
07:56 -9.3 °C -12.8 °C 1037.5 hPa NE 1.6 km/h 3.2 km/h 76% 0 mm 16 W/m2
08:02 -9.3 °C -12.6 °C 1037.8 hPa NE 1.6 km/h 3.2 km/h 77% 0 mm 21 W/m2
08:08 -9.2 °C -12.5 °C 1037.8 hPa ESE 1.6 km/h 3.2 km/h 77% 0 mm 21 W/m2
08:14 -9.2 °C -12.5 °C 1037.5 hPa ESE 1.6 km/h 1.6 km/h 77% 0 mm 19 W/m2
08:20 -9.2 °C -12.7 °C 1037.5 hPa ENE 1.6 km/h 1.6 km/h 76% 0 mm 26 W/m2
08:26 -9.2 °C -12.4 °C 1037.5 hPa ENE 1.6 km/h 3.2 km/h 77% 0 mm 44 W/m2
08:32 -9.1 °C -12.4 °C 1037.1 hPa ENE 1.6 km/h 3.2 km/h 77% 0 mm 62 W/m2
08:38 -9.1 °C -12.4 °C 1037.1 hPa ENE 1.6 km/h 4.8 km/h 77% 0 mm 79 W/m2
08:44 -8.9 °C -12.2 °C 1037.1 hPa ENE 3.2 km/h 3.2 km/h 77% 0 mm 81 W/m2
08:50 -8.8 °C -12.1 °C 1037.1 hPa East 1.6 km/h 3.2 km/h 77% 0 mm 104 W/m2
08:56 -8.7 °C -12 °C 1037.1 hPa East 1.6 km/h 3.2 km/h 77% 0 mm 135 W/m2
09:02 -8.5 °C -12 °C 1037.1 hPa East 1.6 km/h 1.6 km/h 76% 0 mm 93 W/m2
09:08 -8.4 °C -11.9 °C 1036.8 hPa SE 1.6 km/h 4.8 km/h 76% 0 mm 132 W/m2
09:14 -8.2 °C -11.7 °C 1037.1 hPa SE 1.6 km/h 3.2 km/h 76% 0 mm 86 W/m2
09:20 -8.2 °C -11.8 °C 1037.1 hPa SE 1.6 km/h 1.6 km/h 75% 0 mm 109 W/m2
09:26 -8.1 °C -11.6 °C 1036.8 hPa SE 1.6 km/h 1.6 km/h 76% 0 mm 127 W/m2
09:32 -7.9 °C -11.6 °C 1036.8 hPa SE 1.6 km/h 1.6 km/h 75% 0 mm 135 W/m2
09:38 -7.7 °C -11.3 °C 1036.5 hPa SE 1.6 km/h 3.2 km/h 75% 0 mm 218 W/m2
09:44 -7.6 °C -11.6 °C 1036.5 hPa ENE 1.6 km/h 3.2 km/h 73% 0 mm 230 W/m2
09:50 -7.4 °C -11.3 °C 1036.5 hPa ENE 3.2 km/h 6.4 km/h 74% 0 mm 193 W/m2
09:56 -7.4 °C -11.2 °C 1036.1 hPa ENE 3.2 km/h 6.4 km/h 74% 0 mm 179 W/m2
10:02 -7.4 °C -11.2 °C 1036.1 hPa SE 3.2 km/h 3.2 km/h 74% 0 mm 162 W/m2
10:08 -7.1 °C -10.9 °C 1036.1 hPa SE 1.6 km/h 3.2 km/h 74% 0 mm 220 W/m2
10:14 -6.7 °C -10.6 °C 1036.1 hPa NE 1.6 km/h 4.8 km/h 74% 0 mm 214 W/m2
10:20 -6.7 °C -10.9 °C 1036.1 hPa NE 1.6 km/h 1.6 km/h 72% 0 mm 214 W/m2
10:26 -6.6 °C -10.8 °C 1036.1 hPa North 1.6 km/h 4.8 km/h 72% 0 mm 188 W/m2
10:32 -6.5 °C -10.7 °C 1035.8 hPa ENE 1.6 km/h 6.4 km/h 72% 0 mm 216 W/m2
10:38 -6.5 °C -10.7 °C 1035.8 hPa North 3.2 km/h 6.4 km/h 72% 0 mm 176 W/m2
10:44 -6.2 °C -10.4 °C 1035.4 hPa NE 1.6 km/h 3.2 km/h 72% 0 mm 221 W/m2
10:50 -6.2 °C -10.6 °C 1035.4 hPa East 1.6 km/h 4.8 km/h 71% 0 mm 144 W/m2
11:44 -5.4 °C -9.8 °C 1033.7 hPa ENE 3.2 km/h 4.8 km/h 71% 0 mm 167 W/m2
11:50 -5.4 °C -9.8 °C 1033.4 hPa ESE 3.2 km/h 4.8 km/h 71% 0 mm 171 W/m2
11:56 -5.2 °C -9.6 °C 1033.4 hPa East 3.2 km/h 3.2 km/h 71% 0 mm 181 W/m2
12:04 -5.2 °C -9.8 °C 1032.7 hPa ENE 4.8 km/h 4.8 km/h 70% 0 mm 171 W/m2
12:10 -4.9 °C -9.4 °C 1032.7 hPa ENE 3.2 km/h 3.2 km/h 71% 0 mm 190 W/m2
12:16 -4.8 °C -9.4 °C 1032.7 hPa North 1.6 km/h 3.2 km/h 70% 0 mm 165 W/m2
12:22 -4.6 °C -9.4 °C 1032.4 hPa ENE 1.6 km/h 3.2 km/h 69% 0 mm 158 W/m2
12:28 -4.6 °C -9.2 °C 1032.4 hPa East 1.6 km/h 3.2 km/h 70% 0 mm 153 W/m2
12:34 -4.5 °C -9.2 °C 1032.1 hPa ENE 1.6 km/h 1.6 km/h 70% 0 mm 130 W/m2
12:40 -4.4 °C -9.3 °C 1032.1 hPa ESE 3.2 km/h 3.2 km/h 69% 0 mm 139 W/m2
12:46 -4.4 °C -9.3 °C 1031.7 hPa ESE 3.2 km/h 4.8 km/h 69% 0 mm 135 W/m2
12:52 -4.4 °C -9.4 °C 1031.4 hPa ENE 3.2 km/h 3.2 km/h 68% 0 mm 139 W/m2
12:58 -4.4 °C -9.2 °C 1031.7 hPa East 1.6 km/h 3.2 km/h 69% 0 mm 127 W/m2
13:04 -4.4 °C -9.4 °C 1031.4 hPa ENE 3.2 km/h 8 km/h 68% 0 mm 105 W/m2
13:10 -4.4 °C -9.4 °C 1031.4 hPa East 3.2 km/h 3.2 km/h 68% 0 mm 91 W/m2
13:16 -4.5 °C -9.2 °C 1031.4 hPa SE 1.6 km/h 3.2 km/h 70% 0 mm 86 W/m2
13:22 -4.6 °C -9.6 °C 1031 hPa ENE 3.2 km/h 6.4 km/h 68% 0 mm 84 W/m2
13:28 -4.5 °C -9.2 °C 1030.7 hPa East 3.2 km/h 6.4 km/h 70% 0 mm 86 W/m2
13:34 -4.4 °C -9.4 °C 1030.7 hPa East 3.2 km/h 3.2 km/h 68% 0 mm 83 W/m2
13:40 -4.3 °C -9.1 °C 1030.7 hPa East 1.6 km/h 3.2 km/h 69% 0 mm 88 W/m2
13:46 -4.3 °C -9.3 °C 1030.4 hPa East 3.2 km/h 3.2 km/h 68% 0 mm 88 W/m2
13:52 -4.2 °C -9.3 °C 1030.4 hPa East 3.2 km/h 3.2 km/h 68% 0 mm 84 W/m2
13:58 -4.2 °C -9 °C 1030.4 hPa SE 1.6 km/h 6.4 km/h 69% 0 mm 76 W/m2
14:04 -4.1 °C -9.2 °C 1030 hPa ESE 3.2 km/h 3.2 km/h 68% 0 mm 70 W/m2
14:10 -4 °C -8.8 °C 1030 hPa SSE 3.2 km/h 6.4 km/h 69% 0 mm 63 W/m2
14:16 -4.1 °C -9.1 °C 1030 hPa East 3.2 km/h 6.4 km/h 68% 0 mm 58 W/m2
14:22 -4.1 °C -8.9 °C 1029.7 hPa East 3.2 km/h 4.8 km/h 69% 0 mm 54 W/m2
14:28 -4 °C -9.1 °C 1029.7 hPa SE 1.6 km/h 4.8 km/h 68% 0 mm 56 W/m2
14:34 -3.9 °C -8.8 °C 1029.7 hPa ENE 1.6 km/h 6.4 km/h 69% 0 mm 56 W/m2
14:40 -3.9 °C -9 °C 1029.3 hPa East 3.2 km/h 3.2 km/h 68% 0 mm 65 W/m2
14:46 -3.9 °C -9.2 °C 1029.3 hPa East 4.8 km/h 4.8 km/h 67% 0 mm 63 W/m2
14:52 -4 °C -9.2 °C 1029.3 hPa ESE 4.8 km/h 4.8 km/h 67% 0 mm 60 W/m2
14:58 -3.8 °C -8.9 °C 1029.3 hPa ESE 3.2 km/h 4.8 km/h 68% 0 mm 63 W/m2
15:04 -3.8 °C -9 °C 1029 hPa SE 3.2 km/h 4.8 km/h 67% 0 mm 58 W/m2
15:10 -3.8 °C -9.1 °C 1029 hPa ENE 3.2 km/h 3.2 km/h 67% 0 mm 46 W/m2
15:16 -3.8 °C -9 °C 1029 hPa ENE 3.2 km/h 3.2 km/h 67% 0 mm 47 W/m2
15:22 -3.8 °C -9 °C 1029 hPa East 1.6 km/h 3.2 km/h 67% 0 mm 54 W/m2
15:28 -3.7 °C -8.9 °C 1028.7 hPa East 3.2 km/h 3.2 km/h 67% 0 mm 49 W/m2
15:34 -3.8 °C -9 °C 1028.7 hPa East 1.6 km/h 3.2 km/h 67% 0 mm 42 W/m2
15:40 -3.7 °C -8.9 °C 1028.7 hPa ESE 1.6 km/h 3.2 km/h 67% 0 mm 46 W/m2
15:46 -3.7 °C -8.9 °C 1028.7 hPa ESE 1.6 km/h 3.2 km/h 67% 0 mm 40 W/m2
15:52 -3.7 °C -8.9 °C 1028.7 hPa ENE 1.6 km/h 4.8 km/h 67% 0 mm 37 W/m2
15:58 -3.7 °C -8.9 °C 1028.7 hPa ENE 1.6 km/h 4.8 km/h 67% 0 mm 37 W/m2
16:04 -3.6 °C -8.8 °C 1028.7 hPa ENE 1.6 km/h 3.2 km/h 67% 0 mm 30 W/m2
16:10 -3.6 °C -8.8 °C 1028.7 hPa ENE 1.6 km/h 1.6 km/h 67% 0 mm 25 W/m2
16:16 -3.6 °C -8.6 °C 1028.3 hPa Calm   1.6 km/h 68% 0 mm 25 W/m2
16:22 -3.6 °C -8.8 °C 1028 hPa ENE 1.6 km/h 3.2 km/h 67% 0 mm 19 W/m2
16:28 -3.6 °C -8.8 °C 1028 hPa ENE 1.6 km/h 3.2 km/h 67% 0 mm 16 W/m2
16:34 -3.6 °C -8.7 °C 1028 hPa Calm   1.6 km/h 68% 0 mm 12 W/m2
16:40 -3.7 °C -8.9 °C 1028 hPa Calm     67% 0 mm 5 W/m2
16:46 -3.7 °C -8.9 °C 1028 hPa ENE 1.6 km/h 1.6 km/h 67% 0 mm 0 W/m2
16:52 -3.7 °C -8.7 °C 1028 hPa Calm   1.6 km/h 68% 0 mm 0 W/m2
16:58 -3.7 °C -8.8 °C 1028 hPa Calm   1.6 km/h 68% 0 mm 0 W/m2
17:04 -3.7 °C -8.8 °C 1027.7 hPa Calm     68% 0 mm 0 W/m2
17:10 -3.8 °C -8.6 °C 1027.7 hPa Calm     69% 0 mm 0 W/m2
17:16 -3.8 °C -8.7 °C 1027.7 hPa Calm     69% 0 mm 0 W/m2
17:22 -3.8 °C -8.5 °C 1027.7 hPa Calm     70% 0 mm 0 W/m2
17:28 -3.8 °C -8.5 °C 1027.3 hPa Calm     70% 0 mm 0 W/m2
17:34 -3.8 °C -8.3 °C 1027.3 hPa Calm     71% 0 mm 0 W/m2
17:40 -3.8 °C -8.3 °C 1027.3 hPa Calm     71% 0 mm 0 W/m2
17:46 -3.8 °C -8.2 °C 1027.3 hPa Calm   1.6 km/h 72% 0 mm 0 W/m2
17:52 -3.8 °C -8.3 °C 1027.3 hPa ENE 1.6 km/h 1.6 km/h 71% 0 mm 0 W/m2
17:58 -3.8 °C -8.3 °C 1027 hPa Calm   3.2 km/h 71% 0 mm 0 W/m2
18:04 -3.8 °C -8.3 °C 1027 hPa Calm   1.6 km/h 71% 0 mm 0 W/m2
18:10 -3.8 °C -8.3 °C 1027 hPa ENE 1.6 km/h 1.6 km/h 71% 0 mm 0 W/m2
18:16 -3.9 °C -8.2 °C 1027 hPa SE 1.6 km/h 3.2 km/h 72% 0 mm 0 W/m2
18:22 -3.9 °C -8.2 °C 1027 hPa SE 1.6 km/h 1.6 km/h 72% 0 mm 0 W/m2
18:28 -3.9 °C -8.2 °C 1027 hPa Calm   1.6 km/h 72% 0 mm 0 W/m2
18:34 -3.9 °C -8.3 °C 1027 hPa Calm     72% 0 mm 0 W/m2
18:40 -4 °C -8.3 °C 1027 hPa Calm     72% 0 mm 0 W/m2
18:46 -4.1 °C -8.2 °C 1027 hPa Calm     73% 0 mm 0 W/m2
18:52 -4.1 °C -8.2 °C 1027 hPa Calm     73% 0 mm 0 W/m2
18:58 -4.2 °C -8.2 °C 1027 hPa Calm     74% 0 mm 0 W/m2
19:04 -4.2 °C -8 °C 1027 hPa Calm     75% 0 mm 0 W/m2
19:10 -4.2 °C -8 °C 1027 hPa Calm     75% 0 mm 0 W/m2
19:16 -4.3 °C -8.1 °C 1027 hPa Calm     75% 0 mm 0 W/m2
19:22 -4.4 °C -8 °C 1027 hPa Calm     76% 0 mm 0 W/m2
19:28 -4.4 °C -7.9 °C 1027 hPa Calm     77% 0 mm 0 W/m2
19:34 -4.5 °C -7.9 °C 1027 hPa Calm     77% 0 mm 0 W/m2
19:40 -4.6 °C -7.8 °C 1026.6 hPa Calm     78% 0 mm 0 W/m2
19:46 -4.6 °C -7.8 °C 1026.6 hPa Calm     78% 0 mm 0 W/m2
19:52 -4.6 °C -7.8 °C 1026.6 hPa Calm     78% 0 mm 0 W/m2
19:58 -4.6 °C -7.8 °C 1026.6 hPa Calm     78% 0 mm 0 W/m2
20:04 -4.5 °C -7.8 °C 1026.6 hPa Calm     78% 0 mm 0 W/m2
20:10 -4.6 °C -7.8 °C 1026.6 hPa Calm     78% 0 mm 0 W/m2
20:16 -4.6 °C -7.7 °C 1026.6 hPa Calm     79% 0 mm 0 W/m2
20:22 -4.7 °C -7.8 °C 1027 hPa Calm     79% 0 mm 0 W/m2
20:28 -4.7 °C -7.8 °C 1027 hPa Calm     79% 0 mm 0 W/m2
20:34 -4.8 °C -7.8 °C 1026.6 hPa Calm     80% 0 mm 0 W/m2
20:40 -4.9 °C -7.7 °C 1027 hPa Calm     81% 0 mm 0 W/m2
20:46 -4.9 °C -7.7 °C 1027 hPa Calm     81% 0 mm 0 W/m2
20:52 -5 °C -7.6 °C 1026.6 hPa Calm     82% 0 mm 0 W/m2
20:58 -4.9 °C -7.6 °C 1027 hPa Calm     82% 0 mm 0 W/m2
21:04 -4.9 °C -7.6 °C 1026.6 hPa Calm     82% 0 mm 0 W/m2
21:10 -4.9 °C -7.6 °C 1026.6 hPa Calm     82% 0 mm 0 W/m2
21:16 -5.1 °C -7.7 °C 1026.6 hPa Calm     82% 0 mm 0 W/m2
21:22 -5.2 °C -8 °C 1026.6 hPa Calm     81% 0 mm 0 W/m2
21:28 -5.4 °C -8 °C 1026.6 hPa Calm     82% 0 mm 0 W/m2
21:34 -5.6 °C -8.2 °C 1026.6 hPa Calm     82% 0 mm 0 W/m2
21:40 -5.8 °C -8.3 °C 1026.6 hPa Calm     82% 0 mm 0 W/m2
21:46 -6 °C -8.4 °C 1026.6 hPa Calm     83% 0 mm 0 W/m2
21:52 -6.2 °C -8.4 °C 1026.6 hPa Calm     84% 0 mm 0 W/m2
21:58 -6.3 °C -8.6 °C 1026.6 hPa Calm     84% 0 mm 0 W/m2
22:04 -6.4 °C -8.7 °C 1026.6 hPa Calm     84% 0 mm 0 W/m2
22:10 -6.6 °C -8.9 °C 1026.6 hPa Calm     84% 0 mm 0 W/m2
22:16 -6.8 °C -8.9 °C 1026.3 hPa Calm     85% 0 mm 0 W/m2
22:22 -6.9 °C -9 °C 1026.3 hPa Calm     85% 0 mm 0 W/m2
22:28 -7.1 °C -9.2 °C 1026.3 hPa Calm     85% 0 mm 0 W/m2
22:34 -7.2 °C -9.3 °C 1026.3 hPa Calm     85% 0 mm 0 W/m2
22:40 -7.3 °C -9.4 °C 1026.3 hPa Calm     85% 0 mm 0 W/m2
22:48 -7.4 °C -9.6 °C 1026.3 hPa Calm     85% 0 mm 0 W/m2
22:54 -7.4 °C -9.4 °C 1026.3 hPa Calm     86% 0 mm 0 W/m2
23:00 -7.6 °C -9.5 °C 1026.3 hPa Calm     86% 0 mm 0 W/m2
23:06 -7.5 °C -9.3 °C 1026.3 hPa Calm     87% 0 mm 0 W/m2
23:12 -7.5 °C -9.3 °C 1026.6 hPa Calm     87% 0 mm 0 W/m2
23:18 -7.4 °C -9.2 °C 1026.6 hPa Calm     87% 0 mm 0 W/m2
23:24 -7.4 °C -9.1 °C 1026.6 hPa Calm     88% 0 mm 0 W/m2
23:30 -7.3 °C -9 °C 1026.6 hPa Calm     88% 0 mm 0 W/m2
23:36 -7.4 °C -9.1 °C 1026.6 hPa Calm     88% 0 mm 0 W/m2
23:42 -7.4 °C -9.1 °C 1026.6 hPa Calm     88% 0 mm 0 W/m2
23:48 -7.5 °C -9.2 °C 1026.6 hPa Calm     88% 0 mm 0 W/m2
23:54 -7.6 °C -9.3 °C 1026.6 hPa Calm     88% 0 mm 0 W/m2
Country Meadow, Clay, NY, USA
Compliments of Weather Underground - 2 mb